sensor_id;sensor_type;location;lat;lon;timestamp;pressure;altitude;pressure_sealevel;temperature;humidity
47913;BME280;33676;51.006;17.180;2022-11-21T00:01:25;99443.10;;;-3.66;89.35
47913;BME280;33676;51.006;17.180;2022-11-21T00:03:54;99444.21;;;-3.70;89.52
47913;BME280;33676;51.006;17.180;2022-11-21T00:06:22;99447.68;;;-3.71;89.41
47913;BME280;33676;51.006;17.180;2022-11-21T00:08:51;99450.14;;;-3.73;89.42
47913;BME280;33676;51.006;17.180;2022-11-21T00:11:19;99452.80;;;-3.76;89.69
47913;BME280;33676;51.006;17.180;2022-11-21T00:13:48;99448.10;;;-3.78;89.41
47913;BME280;33676;51.006;17.180;2022-11-21T00:16:16;99443.23;;;-3.81;89.52
47913;BME280;33676;51.006;17.180;2022-11-21T00:18:45;99442.63;;;-3.83;89.58
47913;BME280;33676;51.006;17.180;2022-11-21T00:21:16;99440.45;;;-3.84;89.74
47913;BME280;33676;51.006;17.180;2022-11-21T00:23:46;99434.33;;;-3.85;89.94
47913;BME280;33676;51.006;17.180;2022-11-21T00:26:15;99428.73;;;-3.86;89.79
47913;BME280;33676;51.006;17.180;2022-11-21T00:28:44;99430.48;;;-3.88;89.77
47913;BME280;33676;51.006;17.180;2022-11-21T00:31:22;99427.42;;;-3.88;90.25
47913;BME280;33676;51.006;17.180;2022-11-21T00:33:51;99414.61;;;-3.88;90.45
47913;BME280;33676;51.006;17.180;2022-11-21T00:36:19;99406.75;;;-3.88;90.51
47913;BME280;33676;51.006;17.180;2022-11-21T00:38:50;99403.61;;;-3.86;90.58
47913;BME280;33676;51.006;17.180;2022-11-21T00:41:19;99407.32;;;-3.84;90.91
47913;BME280;33676;51.006;17.180;2022-11-21T00:43:47;99413.37;;;-3.81;91.06
47913;BME280;33676;51.006;17.180;2022-11-21T00:46:15;99405.90;;;-3.78;91.34
47913;BME280;33676;51.006;17.180;2022-11-21T00:48:44;99408.63;;;-3.72;91.63
47913;BME280;33676;51.006;17.180;2022-11-21T00:51:12;99409.07;;;-3.65;91.95
47913;BME280;33676;51.006;17.180;2022-11-21T00:53:41;99406.08;;;-3.59;92.04
47913;BME280;33676;51.006;17.180;2022-11-21T00:56:09;99402.11;;;-3.52;92.45
47913;BME280;33676;51.006;17.180;2022-11-21T00:58:38;99402.69;;;-3.45;92.50
47913;BME280;33676;51.006;17.180;2022-11-21T01:01:11;99398.73;;;-3.39;92.52
47913;BME280;33676;51.006;17.180;2022-11-21T01:03:40;99394.20;;;-3.31;92.44
47913;BME280;33676;51.006;17.180;2022-11-21T01:06:12;99396.58;;;-3.26;92.63
47913;BME280;33676;51.006;17.180;2022-11-21T01:08:43;99387.95;;;-3.19;92.47
47913;BME280;33676;51.006;17.180;2022-11-21T01:11:18;99380.52;;;-3.12;92.43
47913;BME280;33676;51.006;17.180;2022-11-21T01:13:47;99379.09;;;-3.07;92.55
47913;BME280;33676;51.006;17.180;2022-11-21T01:16:23;99372.36;;;-3.00;92.51
47913;BME280;33676;51.006;17.180;2022-11-21T01:18:52;99359.80;;;-2.93;92.56
47913;BME280;33676;51.006;17.180;2022-11-21T01:21:27;99359.71;;;-2.87;92.51
47913;BME280;33676;51.006;17.180;2022-11-21T01:23:59;99350.44;;;-2.81;92.64
47913;BME280;33676;51.006;17.180;2022-11-21T01:26:30;99350.91;;;-2.76;92.60
47913;BME280;33676;51.006;17.180;2022-11-21T01:29:00;99347.54;;;-2.73;92.50
47913;BME280;33676;51.006;17.180;2022-11-21T01:31:29;99340.41;;;-2.69;92.44
47913;BME280;33676;51.006;17.180;2022-11-21T01:34:01;99334.30;;;-2.66;92.47
47913;BME280;33676;51.006;17.180;2022-11-21T01:36:31;99339.92;;;-2.61;92.78
47913;BME280;33676;51.006;17.180;2022-11-21T01:39:05;99351.74;;;-2.53;93.25
47913;BME280;33676;51.006;17.180;2022-11-21T01:41:43;99345.45;;;-2.46;93.32
47913;BME280;33676;51.006;17.180;2022-11-21T01:44:43;99347.70;;;-2.38;93.47
47913;BME280;33676;51.006;17.180;2022-11-21T01:47:12;99342.89;;;-2.29;93.74
47913;BME280;33676;51.006;17.180;2022-11-21T01:49:41;99336.73;;;-2.21;93.84
47913;BME280;33676;51.006;17.180;2022-11-21T01:52:25;99333.54;;;-2.14;93.88
47913;BME280;33676;51.006;17.180;2022-11-21T01:55:08;99323.27;;;-2.06;93.99
47913;BME280;33676;51.006;17.180;2022-11-21T01:57:43;99319.55;;;-2.00;94.01
47913;BME280;33676;51.006;17.180;2022-11-21T02:00:22;99317.44;;;-1.94;93.97
47913;BME280;33676;51.006;17.180;2022-11-21T02:02:58;99317.66;;;-1.87;94.08
47913;BME280;33676;51.006;17.180;2022-11-21T02:05:31;99311.17;;;-1.79;94.02
47913;BME280;33676;51.006;17.180;2022-11-21T02:08:13;99312.23;;;-1.72;94.09
47913;BME280;33676;51.006;17.180;2022-11-21T02:11:12;99308.66;;;-1.65;94.16
47913;BME280;33676;51.006;17.180;2022-11-21T02:13:43;99311.06;;;-1.57;94.29
47913;BME280;33676;51.006;17.180;2022-11-21T02:16:11;99311.22;;;-1.50;94.29
47913;BME280;33676;51.006;17.180;2022-11-21T02:18:40;99308.86;;;-1.43;94.40
47913;BME280;33676;51.006;17.180;2022-11-21T02:21:32;99306.33;;;-1.36;94.46
47913;BME280;33676;51.006;17.180;2022-11-21T02:24:19;99298.83;;;-1.29;94.43
47913;BME280;33676;51.006;17.180;2022-11-21T02:26:51;99299.19;;;-1.22;94.49
47913;BME280;33676;51.006;17.180;2022-11-21T02:29:19;99293.93;;;-1.16;94.44
47913;BME280;33676;51.006;17.180;2022-11-21T02:31:48;99293.50;;;-1.10;94.44
47913;BME280;33676;51.006;17.180;2022-11-21T02:34:16;99289.54;;;-1.06;94.41
47913;BME280;33676;51.006;17.180;2022-11-21T02:36:46;99277.70;;;-1.03;94.18
47913;BME280;33676;51.006;17.180;2022-11-21T02:39:34;99270.79;;;-1.02;93.96
47913;BME280;33676;51.006;17.180;2022-11-21T02:42:11;99260.04;;;-0.99;93.70
47913;BME280;33676;51.006;17.180;2022-11-21T02:45:10;99251.32;;;-0.96;93.84
47913;BME280;33676;51.006;17.180;2022-11-21T02:47:41;99250.45;;;-0.93;93.83
47913;BME280;33676;51.006;17.180;2022-11-21T02:50:32;99252.40;;;-0.90;93.99
47913;BME280;33676;51.006;17.180;2022-11-21T02:53:03;99246.52;;;-0.86;94.02
47913;BME280;33676;51.006;17.180;2022-11-21T02:55:32;99243.34;;;-0.84;94.10
47913;BME280;33676;51.006;17.180;2022-11-21T02:58:01;99238.60;;;-0.81;93.82
47913;BME280;33676;51.006;17.180;2022-11-21T03:00:34;99240.01;;;-0.79;93.97
47913;BME280;33676;51.006;17.180;2022-11-21T03:03:03;99240.20;;;-0.75;94.04
47913;BME280;33676;51.006;17.180;2022-11-21T03:05:32;99235.25;;;-0.73;94.03
47913;BME280;33676;51.006;17.180;2022-11-21T03:08:00;99233.42;;;-0.70;94.06
47913;BME280;33676;51.006;17.180;2022-11-21T03:10:29;99233.23;;;-0.66;94.24
47913;BME280;33676;51.006;17.180;2022-11-21T03:12:57;99234.03;;;-0.61;94.30
47913;BME280;33676;51.006;17.180;2022-11-21T03:15:32;99226.42;;;-0.57;94.39
47913;BME280;33676;51.006;17.180;2022-11-21T03:18:02;99222.42;;;-0.52;94.45
47913;BME280;33676;51.006;17.180;2022-11-21T03:20:33;99216.03;;;-0.49;94.47
47913;BME280;33676;51.006;17.180;2022-11-21T03:23:02;99199.60;;;-0.46;94.52
47913;BME280;33676;51.006;17.180;2022-11-21T03:25:30;99195.65;;;-0.43;94.24
47913;BME280;33676;51.006;17.180;2022-11-21T03:27:59;99195.52;;;-0.40;94.35
47913;BME280;33676;51.006;17.180;2022-11-21T03:30:27;99198.97;;;-0.37;94.32
47913;BME280;33676;51.006;17.180;2022-11-21T03:32:56;99192.09;;;-0.33;94.54
47913;BME280;33676;51.006;17.180;2022-11-21T03:35:25;99191.34;;;-0.29;94.69
47913;BME280;33676;51.006;17.180;2022-11-21T03:37:56;99189.71;;;-0.23;94.51
47913;BME280;33676;51.006;17.180;2022-11-21T03:40:24;99186.29;;;-0.20;94.28
47913;BME280;33676;51.006;17.180;2022-11-21T03:42:52;99177.79;;;-0.19;94.19
47913;BME280;33676;51.006;17.180;2022-11-21T03:45:21;99166.13;;;-0.16;94.37
47913;BME280;33676;51.006;17.180;2022-11-21T03:47:49;99158.45;;;-0.14;94.21
47913;BME280;33676;51.006;17.180;2022-11-21T03:50:18;99152.08;;;-0.13;93.97
47913;BME280;33676;51.006;17.180;2022-11-21T03:52:48;99151.02;;;-0.13;94.10
47913;BME280;33676;51.006;17.180;2022-11-21T03:55:16;99145.88;;;-0.13;93.89
47913;BME280;33676;51.006;17.180;2022-11-21T03:57:44;99146.69;;;-0.12;94.03
47913;BME280;33676;51.006;17.180;2022-11-21T04:00:14;99143.28;;;-0.12;93.91
47913;BME280;33676;51.006;17.180;2022-11-21T04:02:43;99140.33;;;-0.12;93.78
47913;BME280;33676;51.006;17.180;2022-11-21T04:05:11;99138.02;;;-0.11;93.93
47913;BME280;33676;51.006;17.180;2022-11-21T04:07:39;99134.24;;;-0.10;93.96
47913;BME280;33676;51.006;17.180;2022-11-21T04:10:08;99133.00;;;-0.10;93.96
47913;BME280;33676;51.006;17.180;2022-11-21T04:12:37;99130.45;;;-0.11;93.96
47913;BME280;33676;51.006;17.180;2022-11-21T04:15:05;99124.37;;;-0.12;93.89
47913;BME280;33676;51.006;17.180;2022-11-21T04:17:40;99117.14;;;-0.15;93.71
47913;BME280;33676;51.006;17.180;2022-11-21T04:20:10;99119.82;;;-0.17;93.82
47913;BME280;33676;51.006;17.180;2022-11-21T04:22:38;99111.85;;;-0.19;94.05
47913;BME280;33676;51.006;17.180;2022-11-21T04:25:07;99107.61;;;-0.20;94.21
47913;BME280;33676;51.006;17.180;2022-11-21T04:27:35;99105.98;;;-0.21;94.19
47913;BME280;33676;51.006;17.180;2022-11-21T04:30:05;99102.36;;;-0.21;94.29
47913;BME280;33676;51.006;17.180;2022-11-21T04:32:34;99093.33;;;-0.23;94.34
47913;BME280;33676;51.006;17.180;2022-11-21T04:35:02;99088.55;;;-0.23;94.37
47913;BME280;33676;51.006;17.180;2022-11-21T04:37:31;99087.23;;;-0.24;94.47
47913;BME280;33676;51.006;17.180;2022-11-21T04:39:59;99081.95;;;-0.25;94.37
47913;BME280;33676;51.006;17.180;2022-11-21T04:42:28;99076.74;;;-0.27;94.40
47913;BME280;33676;51.006;17.180;2022-11-21T04:44:56;99073.82;;;-0.27;94.42
47913;BME280;33676;51.006;17.180;2022-11-21T04:47:24;99070.84;;;-0.26;94.47
47913;BME280;33676;51.006;17.180;2022-11-21T04:49:53;99066.88;;;-0.26;94.73
47913;BME280;33676;51.006;17.180;2022-11-21T04:52:21;99056.07;;;-0.26;94.49
47913;BME280;33676;51.006;17.180;2022-11-21T04:54:50;99044.77;;;-0.27;94.55
47913;BME280;33676;51.006;17.180;2022-11-21T04:57:18;99043.65;;;-0.28;94.55
47913;BME280;33676;51.006;17.180;2022-11-21T04:59:47;99044.55;;;-0.29;94.74
47913;BME280;33676;51.006;17.180;2022-11-21T05:02:15;99050.77;;;-0.30;94.71
47913;BME280;33676;51.006;17.180;2022-11-21T05:04:43;99052.15;;;-0.30;94.51
47913;BME280;33676;51.006;17.180;2022-11-21T05:07:13;99046.13;;;-0.29;94.69
47913;BME280;33676;51.006;17.180;2022-11-21T05:09:41;99044.70;;;-0.29;94.68
47913;BME280;33676;51.006;17.180;2022-11-21T05:12:10;99043.95;;;-0.27;94.88
47913;BME280;33676;51.006;17.180;2022-11-21T05:14:57;99047.63;;;-0.25;94.72
47913;BME280;33676;51.006;17.180;2022-11-21T05:17:29;99047.51;;;-0.23;94.96
47913;BME280;33676;51.006;17.180;2022-11-21T05:19:57;99043.77;;;-0.21;94.79
47913;BME280;33676;51.006;17.180;2022-11-21T05:22:26;99037.67;;;-0.19;94.87
47913;BME280;33676;51.006;17.180;2022-11-21T05:24:54;99036.76;;;-0.18;94.88
47913;BME280;33676;51.006;17.180;2022-11-21T05:27:22;99036.61;;;-0.15;94.97
47913;BME280;33676;51.006;17.180;2022-11-21T05:29:51;99030.06;;;-0.12;94.99
47913;BME280;33676;51.006;17.180;2022-11-21T05:32:20;99028.27;;;-0.10;94.98
47913;BME280;33676;51.006;17.180;2022-11-21T05:34:51;99021.47;;;-0.09;94.89
47913;BME280;33676;51.006;17.180;2022-11-21T05:37:19;99022.52;;;-0.06;95.22
47913;BME280;33676;51.006;17.180;2022-11-21T05:39:49;99015.64;;;-0.03;95.14
47913;BME280;33676;51.006;17.180;2022-11-21T05:42:17;99007.71;;;0.00;95.22
47913;BME280;33676;51.006;17.180;2022-11-21T05:45:06;98996.67;;;0.05;95.39
47913;BME280;33676;51.006;17.180;2022-11-21T05:47:35;98993.59;;;0.08;95.46
47913;BME280;33676;51.006;17.180;2022-11-21T05:50:03;98989.58;;;0.09;95.49
47913;BME280;33676;51.006;17.180;2022-11-21T05:52:32;98981.72;;;0.11;95.58
47913;BME280;33676;51.006;17.180;2022-11-21T05:55:00;98984.83;;;0.14;95.75
47913;BME280;33676;51.006;17.180;2022-11-21T05:57:30;98982.67;;;0.15;95.70
47913;BME280;33676;51.006;17.180;2022-11-21T05:59:58;98976.30;;;0.15;95.66
47913;BME280;33676;51.006;17.180;2022-11-21T06:02:26;98975.88;;;0.17;95.42
47913;BME280;33676;51.006;17.180;2022-11-21T06:05:14;98978.73;;;0.18;95.58
47913;BME280;33676;51.006;17.180;2022-11-21T06:07:42;98982.98;;;0.19;95.56
47913;BME280;33676;51.006;17.180;2022-11-21T06:10:11;98984.67;;;0.19;95.57
47913;BME280;33676;51.006;17.180;2022-11-21T06:12:39;98982.56;;;0.20;95.43
47913;BME280;33676;51.006;17.180;2022-11-21T06:15:08;98980.77;;;0.18;95.29
47913;BME280;33676;51.006;17.180;2022-11-21T06:17:36;98975.06;;;0.16;95.05
47913;BME280;33676;51.006;17.180;2022-11-21T06:20:05;98970.89;;;0.14;95.06
47913;BME280;33676;51.006;17.180;2022-11-21T06:22:34;98963.79;;;0.12;95.11
47913;BME280;33676;51.006;17.180;2022-11-21T06:25:02;98960.83;;;0.10;95.02
47913;BME280;33676;51.006;17.180;2022-11-21T06:27:30;98958.05;;;0.07;94.93
47913;BME280;33676;51.006;17.180;2022-11-21T06:30:02;98956.10;;;0.05;94.88
47913;BME280;33676;51.006;17.180;2022-11-21T06:32:36;98952.73;;;0.04;95.22
47913;BME280;33676;51.006;17.180;2022-11-21T06:35:05;98958.46;;;0.03;95.08
47913;BME280;33676;51.006;17.180;2022-11-21T06:37:36;98961.02;;;0.03;95.26
47913;BME280;33676;51.006;17.180;2022-11-21T06:40:05;98951.72;;;0.04;95.07
47913;BME280;33676;51.006;17.180;2022-11-21T06:42:33;98944.42;;;0.02;95.22
47913;BME280;33676;51.006;17.180;2022-11-21T06:45:03;98948.10;;;0.01;95.34
47913;BME280;33676;51.006;17.180;2022-11-21T06:47:34;98954.25;;;0.02;95.32
47913;BME280;33676;51.006;17.180;2022-11-21T06:50:03;98959.34;;;0.03;95.20
47913;BME280;33676;51.006;17.180;2022-11-21T06:52:32;98959.08;;;0.04;95.27
47913;BME280;33676;51.006;17.180;2022-11-21T06:55:01;98958.31;;;0.06;95.56
47913;BME280;33676;51.006;17.180;2022-11-21T06:57:30;98954.48;;;0.07;95.54
47913;BME280;33676;51.006;17.180;2022-11-21T07:00:00;98949.02;;;0.09;95.57
47913;BME280;33676;51.006;17.180;2022-11-21T07:02:28;98950.64;;;0.11;95.70
47913;BME280;33676;51.006;17.180;2022-11-21T07:04:56;98944.16;;;0.13;95.59
47913;BME280;33676;51.006;17.180;2022-11-21T07:07:25;98948.42;;;0.17;95.74
47913;BME280;33676;51.006;17.180;2022-11-21T07:09:58;98952.15;;;0.20;95.95
47913;BME280;33676;51.006;17.180;2022-11-21T07:12:27;98957.78;;;0.24;95.87
47913;BME280;33676;51.006;17.180;2022-11-21T07:15:14;98962.66;;;0.29;96.02
47913;BME280;33676;51.006;17.180;2022-11-21T07:17:42;98961.27;;;0.32;96.11
47913;BME280;33676;51.006;17.180;2022-11-21T07:20:11;98961.90;;;0.37;96.23
47913;BME280;33676;51.006;17.180;2022-11-21T07:22:40;98962.11;;;0.42;96.20
47913;BME280;33676;51.006;17.180;2022-11-21T07:25:09;98962.83;;;0.47;96.51
47913;BME280;33676;51.006;17.180;2022-11-21T07:27:40;98963.42;;;0.54;96.72
47913;BME280;33676;51.006;17.180;2022-11-21T07:30:09;98959.04;;;0.61;96.85
47913;BME280;33676;51.006;17.180;2022-11-21T07:32:38;98957.06;;;0.69;96.98
47913;BME280;33676;51.006;17.180;2022-11-21T07:35:08;98952.28;;;0.77;97.07
47913;BME280;33676;51.006;17.180;2022-11-21T07:37:39;98954.54;;;0.85;96.98
47913;BME280;33676;51.006;17.180;2022-11-21T07:40:08;98953.09;;;0.92;97.13
47913;BME280;33676;51.006;17.180;2022-11-21T07:42:36;98955.58;;;1.00;97.19
47913;BME280;33676;51.006;17.180;2022-11-21T07:45:05;98957.41;;;1.09;97.33
47913;BME280;33676;51.006;17.180;2022-11-21T07:47:34;98953.73;;;1.18;97.39
47913;BME280;33676;51.006;17.180;2022-11-21T07:50:04;98949.27;;;1.27;97.62
47913;BME280;33676;51.006;17.180;2022-11-21T07:52:33;98951.64;;;1.36;97.74
47913;BME280;33676;51.006;17.180;2022-11-21T07:55:04;98951.55;;;1.46;97.57
47913;BME280;33676;51.006;17.180;2022-11-21T07:57:33;98951.73;;;1.56;97.85
47913;BME280;33676;51.006;17.180;2022-11-21T08:00:02;98948.86;;;1.66;98.04
47913;BME280;33676;51.006;17.180;2022-11-21T08:02:30;98949.79;;;1.76;97.84
47913;BME280;33676;51.006;17.180;2022-11-21T08:04:59;98948.24;;;1.84;97.91
47913;BME280;33676;51.006;17.180;2022-11-21T08:07:27;98945.80;;;1.92;97.95
47913;BME280;33676;51.006;17.180;2022-11-21T08:09:55;98947.05;;;2.03;97.82
47913;BME280;33676;51.006;17.180;2022-11-21T08:12:24;98943.33;;;2.12;98.15
47913;BME280;33676;51.006;17.180;2022-11-21T08:14:53;98947.36;;;2.22;98.13
47913;BME280;33676;51.006;17.180;2022-11-21T08:17:24;98947.65;;;2.30;98.08
47913;BME280;33676;51.006;17.180;2022-11-21T08:19:53;98948.45;;;2.39;98.17
47913;BME280;33676;51.006;17.180;2022-11-21T08:22:21;98949.20;;;2.46;97.84
47913;BME280;33676;51.006;17.180;2022-11-21T08:24:50;98946.94;;;2.52;97.77
47913;BME280;33676;51.006;17.180;2022-11-21T08:27:20;98947.23;;;2.57;97.71
47913;BME280;33676;51.006;17.180;2022-11-21T08:29:49;98950.56;;;2.64;97.47
47913;BME280;33676;51.006;17.180;2022-11-21T08:32:17;98948.88;;;2.69;97.39
47913;BME280;33676;51.006;17.180;2022-11-21T08:34:48;98950.06;;;2.74;97.46
47913;BME280;33676;51.006;17.180;2022-11-21T08:38:59;98952.04;;;2.86;97.39
47913;BME280;33676;51.006;17.180;2022-11-21T08:41:27;98950.09;;;2.92;97.49
47913;BME280;33676;51.006;17.180;2022-11-21T08:44:14;98945.29;;;2.99;97.31
47913;BME280;33676;51.006;17.180;2022-11-21T08:46:43;98950.09;;;3.05;97.56
47913;BME280;33676;51.006;17.180;2022-11-21T08:49:11;98945.62;;;3.09;97.61
47913;BME280;33676;51.006;17.180;2022-11-21T08:51:40;98945.16;;;3.13;97.79
47913;BME280;33676;51.006;17.180;2022-11-21T08:54:08;98940.07;;;3.17;97.54
47913;BME280;33676;51.006;17.180;2022-11-21T08:56:37;98946.14;;;3.19;97.87
47913;BME280;33676;51.006;17.180;2022-11-21T08:59:05;98946.59;;;3.22;97.78
47913;BME280;33676;51.006;17.180;2022-11-21T09:01:34;98945.55;;;3.24;97.79
47913;BME280;33676;51.006;17.180;2022-11-21T09:04:04;98944.53;;;3.29;98.00
47913;BME280;33676;51.006;17.180;2022-11-21T09:06:33;98946.63;;;3.34;98.15
47913;BME280;33676;51.006;17.180;2022-11-21T09:09:04;98948.95;;;3.38;98.30
47913;BME280;33676;51.006;17.180;2022-11-21T09:11:34;98952.98;;;3.42;98.32
47913;BME280;33676;51.006;17.180;2022-11-21T09:14:04;98952.94;;;3.45;98.04
47913;BME280;33676;51.006;17.180;2022-11-21T09:16:51;98952.58;;;3.48;98.17
47913;BME280;33676;51.006;17.180;2022-11-21T09:19:39;98949.53;;;3.52;98.21
47913;BME280;33676;51.006;17.180;2022-11-21T09:22:07;98950.80;;;3.56;98.24
47913;BME280;33676;51.006;17.180;2022-11-21T09:24:36;98947.66;;;3.61;98.33
47913;BME280;33676;51.006;17.180;2022-11-21T09:27:04;98945.37;;;3.69;98.49
47913;BME280;33676;51.006;17.180;2022-11-21T09:29:32;98952.17;;;3.76;98.53
47913;BME280;33676;51.006;17.180;2022-11-21T09:32:01;98951.38;;;3.79;98.48
47913;BME280;33676;51.006;17.180;2022-11-21T09:34:29;98950.59;;;3.83;98.52
47913;BME280;33676;51.006;17.180;2022-11-21T09:36:59;98949.80;;;3.87;98.59
47913;BME280;33676;51.006;17.180;2022-11-21T09:39:27;98948.23;;;3.91;98.63
47913;BME280;33676;51.006;17.180;2022-11-21T09:45:15;98946.02;;;4.06;98.79
47913;BME280;33676;51.006;17.180;2022-11-21T09:47:50;98944.79;;;4.15;99.05
47913;BME280;33676;51.006;17.180;2022-11-21T09:50:32;98949.29;;;4.24;99.45
47913;BME280;33676;51.006;17.180;2022-11-21T09:53:16;98949.55;;;4.35;99.54
47913;BME280;33676;51.006;17.180;2022-11-21T09:56:10;98949.98;;;4.46;99.80
47913;BME280;33676;51.006;17.180;2022-11-21T09:58:48;98944.88;;;4.56;99.74
47913;BME280;33676;51.006;17.180;2022-11-21T10:01:17;98949.71;;;4.65;99.79
47913;BME280;33676;51.006;17.180;2022-11-21T10:07:28;98951.25;;;4.79;99.50
47913;BME280;33676;51.006;17.180;2022-11-21T10:13:56;98952.06;;;4.87;98.86
47913;BME280;33676;51.006;17.180;2022-11-21T10:16:52;98953.33;;;4.88;98.66
47913;BME280;33676;51.006;17.180;2022-11-21T10:25:54;98947.48;;;5.06;99.18
47913;BME280;33676;51.006;17.180;2022-11-21T10:29:04;98944.35;;;5.22;99.40
47913;BME280;33676;51.006;17.180;2022-11-21T10:31:40;98942.46;;;5.39;99.40
47913;BME280;33676;51.006;17.180;2022-11-21T10:34:18;98942.61;;;5.52;99.33
47913;BME280;33676;51.006;17.180;2022-11-21T10:36:52;98945.19;;;5.66;99.35
47913;BME280;33676;51.006;17.180;2022-11-21T10:39:42;98939.86;;;5.79;99.34
47913;BME280;33676;51.006;17.180;2022-11-21T10:42:34;98944.39;;;5.91;99.41
47913;BME280;33676;51.006;17.180;2022-11-21T10:45:03;98944.20;;;6.03;99.30
47913;BME280;33676;51.006;17.180;2022-11-21T10:47:49;98945.20;;;6.12;98.96
47913;BME280;33676;51.006;17.180;2022-11-21T10:50:27;98946.11;;;6.20;98.78
47913;BME280;33676;51.006;17.180;2022-11-21T10:53:15;98942.85;;;6.25;98.79
47913;BME280;33676;51.006;17.180;2022-11-21T10:56:25;98944.66;;;6.30;98.74
47913;BME280;33676;51.006;17.180;2022-11-21T10:58:56;98945.45;;;6.32;98.50
47913;BME280;33676;51.006;17.180;2022-11-21T11:01:34;98943.03;;;6.32;98.37
47913;BME280;33676;51.006;17.180;2022-11-21T11:07:18;98944.42;;;6.27;97.89
47913;BME280;33676;51.006;17.180;2022-11-21T11:09:47;98947.45;;;6.22;97.76
47913;BME280;33676;51.006;17.180;2022-11-21T11:12:25;98948.93;;;6.19;97.71
47913;BME280;33676;51.006;17.180;2022-11-21T11:15:25;98951.05;;;6.14;97.53
47913;BME280;33676;51.006;17.180;2022-11-21T11:18:02;98954.78;;;6.15;97.56
47913;BME280;33676;51.006;17.180;2022-11-21T11:20:43;98952.73;;;6.11;97.22
47913;BME280;33676;51.006;17.180;2022-11-21T11:23:25;98951.01;;;6.04;96.92
47913;BME280;33676;51.006;17.180;2022-11-21T11:25:57;98956.34;;;6.03;97.18
47913;BME280;33676;51.006;17.180;2022-11-21T11:28:35;98957.78;;;6.02;97.24
47913;BME280;33676;51.006;17.180;2022-11-21T11:31:04;98957.91;;;6.01;97.13
47913;BME280;33676;51.006;17.180;2022-11-21T11:33:49;98960.89;;;5.97;97.10
47913;BME280;33676;51.006;17.180;2022-11-21T11:36:33;98967.09;;;5.96;97.02
47913;BME280;33676;51.006;17.180;2022-11-21T11:39:36;98965.98;;;5.92;96.92
47913;BME280;33676;51.006;17.180;2022-11-21T11:42:34;98963.67;;;5.91;96.98
47913;BME280;33676;51.006;17.180;2022-11-21T11:45:44;98968.16;;;5.93;97.13
47913;BME280;33676;51.006;17.180;2022-11-21T11:48:36;98969.88;;;5.96;97.22
47913;BME280;33676;51.006;17.180;2022-11-21T11:51:34;98966.09;;;5.97;97.22
47913;BME280;33676;51.006;17.180;2022-11-21T11:54:18;98964.93;;;5.99;97.12
47913;BME280;33676;51.006;17.180;2022-11-21T11:56:48;98963.86;;;6.04;97.45
47913;BME280;33676;51.006;17.180;2022-11-21T11:59:30;98963.70;;;6.10;97.54
47913;BME280;33676;51.006;17.180;2022-11-21T12:02:28;98962.84;;;6.16;97.56
47913;BME280;33676;51.006;17.180;2022-11-21T12:05:13;98963.94;;;6.24;97.50
47913;BME280;33676;51.006;17.180;2022-11-21T12:07:51;98958.86;;;6.31;97.47
47913;BME280;33676;51.006;17.180;2022-11-21T12:11:06;98961.00;;;6.37;97.32
47913;BME280;33676;51.006;17.180;2022-11-21T12:14:31;98962.90;;;6.39;96.99
47913;BME280;33676;51.006;17.180;2022-11-21T12:17:31;98968.02;;;6.38;96.73
47913;BME280;33676;51.006;17.180;2022-11-21T12:20:11;98972.29;;;6.35;96.47
47913;BME280;33676;51.006;17.180;2022-11-21T12:22:41;98975.45;;;6.29;96.41
47913;BME280;33676;51.006;17.180;2022-11-21T12:25:11;98979.73;;;6.26;96.40
47913;BME280;33676;51.006;17.180;2022-11-21T12:27:41;98984.11;;;6.26;96.60
47913;BME280;33676;51.006;17.180;2022-11-21T12:33:17;98989.34;;;6.28;96.68
47913;BME280;33676;51.006;17.180;2022-11-21T12:39:33;98990.30;;;6.22;96.39
47913;BME280;33676;51.006;17.180;2022-11-21T12:42:05;98995.35;;;6.20;96.53
47913;BME280;33676;51.006;17.180;2022-11-21T12:45:23;99003.93;;;6.15;96.29
47913;BME280;33676;51.006;17.180;2022-11-21T12:48:35;99007.02;;;6.11;96.47
47913;BME280;33676;51.006;17.180;2022-11-21T12:57:56;99025.48;;;5.90;96.04
47913;BME280;33676;51.006;17.180;2022-11-21T13:06:18;99039.88;;;5.61;95.74
47913;BME280;33676;51.006;17.180;2022-11-21T13:08:50;99044.20;;;5.50;95.70
47913;BME280;33676;51.006;17.180;2022-11-21T13:11:32;99047.61;;;5.40;95.80
47913;BME280;33676;51.006;17.180;2022-11-21T13:20:21;99051.22;;;5.06;95.89
47913;BME280;33676;51.006;17.180;2022-11-21T13:22:56;99058.70;;;4.96;95.90
47913;BME280;33676;51.006;17.180;2022-11-21T13:36:07;99082.33;;;4.43;96.29
47913;BME280;33676;51.006;17.180;2022-11-21T13:47:28;99098.69;;;4.01;97.13
47913;BME280;33676;51.006;17.180;2022-11-21T13:50:25;99098.64;;;3.91;97.37
47913;BME280;33676;51.006;17.180;2022-11-21T13:55:55;99108.17;;;3.76;97.86
47913;BME280;33676;51.006;17.180;2022-11-21T13:58:44;99107.95;;;3.70;97.98
47913;BME280;33676;51.006;17.180;2022-11-21T14:01:27;99112.20;;;3.63;98.24
47913;BME280;33676;51.006;17.180;2022-11-21T14:07:35;99118.92;;;3.51;98.49
47913;BME280;33676;51.006;17.180;2022-11-21T14:12:54;99122.41;;;3.43;98.46
47913;BME280;33676;51.006;17.180;2022-11-21T14:15:34;99125.02;;;3.40;98.54
47913;BME280;33676;51.006;17.180;2022-11-21T14:18:20;99132.01;;;3.33;98.45
47913;BME280;33676;51.006;17.180;2022-11-21T14:21:00;99135.25;;;3.26;98.25
47913;BME280;33676;51.006;17.180;2022-11-21T14:23:32;99141.73;;;3.19;98.39
47913;BME280;33676;51.006;17.180;2022-11-21T14:26:11;99146.14;;;3.13;98.13
47913;BME280;33676;51.006;17.180;2022-11-21T14:28:41;99144.73;;;3.06;98.14
47913;BME280;33676;51.006;17.180;2022-11-21T14:31:11;99149.31;;;2.99;98.23
47913;BME280;33676;51.006;17.180;2022-11-21T14:33:44;99148.28;;;2.93;98.45
47913;BME280;33676;51.006;17.180;2022-11-21T14:36:26;99153.52;;;2.87;98.55
47913;BME280;33676;51.006;17.180;2022-11-21T14:39:05;99155.91;;;2.80;98.78
47913;BME280;33676;51.006;17.180;2022-11-21T14:41:56;99154.73;;;2.71;98.78
47913;BME280;33676;51.006;17.180;2022-11-21T14:44:26;99157.05;;;2.64;98.87
47913;BME280;33676;51.006;17.180;2022-11-21T14:47:21;99157.52;;;2.60;98.94